Welcome to Northern Hawkes Bay. New Zealand.
PWS Header
      nz Flag



Hit Counter


W3C Valid W3C Valid logo


    Wairoa

Select any of the Stations below to visit their websites.










Historic Data from Weather Underground
Select the location of interest below. Wairoa is the default. Please have patience, this Data is slow to load in.
Northern Hawkes Bay Historical Data
Daily Summary for May 31, 2017 Units:  Metric    English   Both
« Previous Day
Next Day »
Daily Weekly Monthly Yearly Custom
  High: Low: Average:
Temperature: 17.4 °C 8.6 °C 11.1 °C
Dew Point: 12.3 °C 8.4 °C 10.1 °C
Humidity: 99% 70% 93%
Wind Speed: 13.4km/h 0.0km/h 4.5km/h
Wind Gust: 20.9km/h - -
Wind- - West
Pressure: 1019.2 hPa 1013.4 hPa -
Precipitation: 2.3 mm    
Historical Graphs
 
 
Tabular Data for May 31, 2017
Time Temperature Dew Point Pressure Wind Wind Speed Wind Gust Humidity Rainfall Rate (Hourly) solar
00:04 16.9 °C 11.6 °C 1013.4 hPa South 5.0 km/h 7.2 km/h 71% 0.0 mm 66 W/m2
00:09 16.8 °C 11.7 °C 1013.4 hPa South 2.6 km/h 7.2 km/h 72% 0.0 mm 55 W/m2
00:14 16.9 °C 11.6 °C 1013.8 hPa South 2.6 km/h 7.2 km/h 71% 0.0 mm 46 W/m2
00:19 17.0 °C 11.5 °C 1013.8 hPa South 2.6 km/h 6.1 km/h 70% 0.0 mm 39 W/m2
00:24 17.1 °C 11.8 °C 1013.8 hPa SSW 1.1 km/h 6.1 km/h 71% 0.0 mm 33 W/m2
00:29 17.4 °C 12.1 °C 1013.8 hPa SW 1.1 km/h 5.0 km/h 71% 0.0 mm 27 W/m2
00:34 17.2 °C 11.9 °C 1013.8 hPa SW 1.1 km/h 3.5 km/h 71% 0.0 mm 21 W/m2
00:39 16.3 °C 11.3 °C 1013.8 hPa SSW 1.1 km/h 3.5 km/h 72% 0.0 mm 13 W/m2
00:44 15.3 °C 10.9 °C 1013.8 hPa Calm   2.6 km/h 75% 0.0 mm 12 W/m2
00:49 14.7 °C 10.7 °C 1013.8 hPa Calm   2.6 km/h 77% 0.0 mm 6 W/m2
00:54 14.0 °C 10.2 °C 1013.8 hPa Calm   1.1 km/h 78% 0.0 mm 4 W/m2
00:59 13.3 °C 9.9 °C 1013.8 hPa Calm     80% 0.0 mm 2 W/m2
01:04 12.9 °C 9.7 °C 1014.1 hPa Calm     81% 0.0 mm 0 W/m2
01:09 12.5 °C 9.5 °C 1013.8 hPa Calm     82% 0.0 mm 0 W/m2
01:14 12.2 °C 9.4 °C 1014.1 hPa Calm     83% 0.0 mm 0 W/m2
01:19 12.0 °C 9.4 °C 1014.1 hPa North 1.1 km/h 2.6 km/h 84% 0.0 mm 0 W/m2
01:25 11.8 °C 9.7 °C 1014.1 hPa NNW 2.6 km/h 3.5 km/h 87% 0.0 mm 0 W/m2
01:30 11.6 °C 9.7 °C 1014.1 hPa NNW 2.6 km/h 5.0 km/h 88% 0.0 mm 0 W/m2
01:36 11.3 °C 9.7 °C 1014.1 hPa NNW 1.1 km/h 5.0 km/h 90% 0.0 mm 0 W/m2
01:41 11.2 °C 9.8 °C 1014.1 hPa North 1.1 km/h 2.6 km/h 91% 0.0 mm 0 W/m2
01:46 11.2 °C 9.8 °C 1013.8 hPa NNE 1.1 km/h 3.5 km/h 91% 0.0 mm 0 W/m2
01:51 11.2 °C 9.9 °C 1014.1 hPa North 1.1 km/h 3.5 km/h 92% 0.0 mm 0 W/m2
01:56 11.2 °C 10.1 °C 1014.1 hPa North 1.1 km/h 3.5 km/h 93% 0.0 mm 0 W/m2
02:01 11.0 °C 9.9 °C 1014.1 hPa NNW 1.1 km/h 2.6 km/h 93% 0.0 mm 0 W/m2
02:06 10.8 °C 9.9 °C 1014.1 hPa NW 1.1 km/h 3.5 km/h 94% 0.0 mm 0 W/m2
02:11 10.8 °C 9.9 °C 1014.1 hPa North 2.6 km/h 5.0 km/h 94% 0.0 mm 0 W/m2
02:16 10.7 °C 9.9 °C 1014.4 hPa North 2.6 km/h 5.0 km/h 95% 0.0 mm 0 W/m2
02:21 10.6 °C 9.8 °C 1014.4 hPa NNW 3.5 km/h 5.0 km/h 95% 0.0 mm 0 W/m2
02:26 10.4 °C 9.6 °C 1014.4 hPa NNW 1.1 km/h 5.0 km/h 95% 0.0 mm 0 W/m2
02:31 10.4 °C 9.6 °C 1014.4 hPa North 2.6 km/h 5.0 km/h 95% 0.0 mm 0 W/m2
02:36 10.3 °C 9.7 °C 1014.4 hPa North 2.6 km/h 5.0 km/h 96% 0.0 mm 0 W/m2
02:41 10.2 °C 9.6 °C 1014.8 hPa North 2.6 km/h 3.5 km/h 96% 0.0 mm 0 W/m2
02:46 10.1 °C 9.5 °C 1014.8 hPa NNW 2.6 km/h 6.1 km/h 96% 0.0 mm 0 W/m2
02:51 10.0 °C 9.4 °C 1014.8 hPa NNW 2.6 km/h 6.1 km/h 96% 0.0 mm 0 W/m2
02:56 9.9 °C 9.4 °C 1014.8 hPa North 2.6 km/h 5.0 km/h 97% 0.0 mm 0 W/m2
03:01 9.8 °C 9.3 °C 1014.8 hPa North 3.5 km/h 5.0 km/h 97% 0.0 mm 0 W/m2
03:06 9.7 °C 9.2 °C 1014.8 hPa NNW 2.6 km/h 5.0 km/h 97% 0.0 mm 0 W/m2
03:11 9.5 °C 9.2 °C 1014.8 hPa NNW 2.6 km/h 5.0 km/h 98% 0.0 mm 0 W/m2
03:16 9.5 °C 9.2 °C 1014.8 hPa NNW 2.6 km/h 5.0 km/h 98% 0.0 mm 0 W/m2
03:21 9.4 °C 9.1 °C 1015.1 hPa North 2.6 km/h 5.0 km/h 98% 0.0 mm 0 W/m2
03:26 9.4 °C 9.1 °C 1014.8 hPa North 2.6 km/h 5.0 km/h 98% 0.0 mm 0 W/m2
03:31 9.3 °C 9.0 °C 1014.8 hPa NNW 3.5 km/h 5.0 km/h 98% 0.0 mm 0 W/m2
03:36 9.2 °C 8.9 °C 1014.8 hPa NW 3.5 km/h 5.0 km/h 98% 0.0 mm 0 W/m2
03:39 9.2 °C 8.9 °C 1014.8 hPa NW 5.0 km/h 6.1 km/h 98% 0.0 mm 0 W/m2
03:44 9.2 °C 8.9 °C 1015.1 hPa NW 3.5 km/h 7.2 km/h 98% 0.0 mm 0 W/m2
03:48 9.1 °C 8.8 °C 1015.1 hPa NW 2.6 km/h 7.2 km/h 98% 0.0 mm 0 W/m2
03:53 9.0 °C 8.7 °C 1015.1 hPa NNW 3.5 km/h 6.1 km/h 98% 0.0 mm 0 W/m2
03:58 9.0 °C 8.8 °C 1015.1 hPa NNW 3.5 km/h 6.1 km/h 99% 0.0 mm 0 W/m2
04:03 8.9 °C 8.8 °C 1015.1 hPa NNW 3.5 km/h 6.1 km/h 99% 0.0 mm 0 W/m2
04:08 8.9 °C 8.8 °C 1015.1 hPa NNW 2.6 km/h 6.1 km/h 99% 0.0 mm 0 W/m2
04:26 8.9 °C 8.8 °C 1015.5 hPa NNW 2.6 km/h 7.2 km/h 99% 0.0 mm 0 W/m2
04:31 8.9 °C 8.8 °C 1015.5 hPa NNW 2.6 km/h 7.2 km/h 99% 0.0 mm 0 W/m2
04:36 8.8 °C 8.7 °C 1015.5 hPa NNW 2.6 km/h 6.1 km/h 99% 0.0 mm 0 W/m2
04:41 8.7 °C 8.6 °C 1015.5 hPa NW 3.5 km/h 6.1 km/h 99% 0.0 mm 0 W/m2
04:46 8.6 °C 8.4 °C 1015.5 hPa NW 5.0 km/h 6.1 km/h 99% 0.0 mm 0 W/m2
04:51 8.7 °C 8.6 °C 1015.5 hPa NW 3.5 km/h 6.1 km/h 99% 0.0 mm 0 W/m2
04:56 8.8 °C 8.7 °C 1015.5 hPa NNW 3.5 km/h 6.1 km/h 99% 0.0 mm 0 W/m2
05:01 8.9 °C 8.8 °C 1015.5 hPa NNW 5.0 km/h 7.2 km/h 99% 0.0 mm 0 W/m2
05:06 9.0 °C 8.8 °C 1015.5 hPa NNW 5.0 km/h 7.2 km/h 99% 0.0 mm 0 W/m2
05:11 9.1 °C 8.9 °C 1015.8 hPa NNW 5.0 km/h 7.2 km/h 99% 0.3 mm 0 W/m2
05:16 9.2 °C 9.1 °C 1015.8 hPa NNW 3.5 km/h 7.2 km/h 99% 0.3 mm 0 W/m2
05:21 9.4 °C 9.3 °C 1015.8 hPa NNW 5.0 km/h 7.2 km/h 99% 0.3 mm 0 W/m2
05:26 9.5 °C 9.3 °C 1015.8 hPa NNW 5.0 km/h 8.7 km/h 99% 0.3 mm 0 W/m2
05:31 9.6 °C 9.4 °C 1015.8 hPa NNW 7.2 km/h 9.7 km/h 99% 0.3 mm 0 W/m2
05:36 9.6 °C 9.4 °C 1015.8 hPa NW 6.1 km/h 9.7 km/h 99% 0.3 mm 0 W/m2
05:41 9.5 °C 9.3 °C 1016.1 hPa WNW 2.6 km/h 9.7 km/h 99% 1.0 mm 0 W/m2
05:46 9.5 °C 9.3 °C 1016.1 hPa NW 1.1 km/h 7.2 km/h 99% 1.3 mm 0 W/m2
05:51 9.5 °C 9.3 °C 1016.1 hPa North 2.6 km/h 6.1 km/h 99% 1.5 mm 0 W/m2
05:56 9.6 °C 9.4 °C 1015.8 hPa NNE 2.6 km/h 7.2 km/h 99% 1.5 mm 0 W/m2
06:01 9.7 °C 9.6 °C 1015.8 hPa North 2.6 km/h 7.2 km/h 99% 1.5 mm 0 W/m2
06:06 9.8 °C 9.7 °C 1015.8 hPa North 3.5 km/h 7.2 km/h 99% 1.5 mm 0 W/m2
06:11 9.8 °C 9.7 °C 1016.1 hPa NNW 3.5 km/h 8.7 km/h 99% 1.3 mm 0 W/m2
06:16 9.8 °C 9.7 °C 1015.8 hPa NNW 6.1 km/h 9.7 km/h 99% 1.3 mm 0 W/m2
06:21 9.7 °C 9.6 °C 1015.8 hPa NW 5.0 km/h 9.7 km/h 99% 1.3 mm 0 W/m2
06:26 9.6 °C 9.4 °C 1015.8 hPa NW 3.5 km/h 9.7 km/h 99% 1.3 mm 0 W/m2
06:31 9.5 °C 9.3 °C 1015.8 hPa NW 5.0 km/h 7.2 km/h 99% 1.3 mm 0 W/m2
06:36 9.4 °C 9.3 °C 1015.8 hPa NNW 7.2 km/h 8.7 km/h 99% 1.3 mm 0 W/m2
06:41 9.4 °C 9.3 °C 1015.8 hPa NNW 3.5 km/h 8.7 km/h 99% 0.3 mm 0 W/m2
06:46 9.3 °C 9.2 °C 1015.8 hPa NW 3.5 km/h 8.7 km/h 99% 0.3 mm 0 W/m2
06:51 9.2 °C 9.1 °C 1015.8 hPa NW 2.6 km/h 7.2 km/h 99% 0.0 mm 0 W/m2
06:57 9.2 °C 9.1 °C 1016.1 hPa NNW 3.5 km/h 6.1 km/h 99% 0.0 mm 0 W/m2
07:02 9.1 °C 8.9 °C 1016.1 hPa NNW 3.5 km/h 6.1 km/h 99% 0.0 mm 0 W/m2
07:07 9.1 °C 8.9 °C 1016.1 hPa NNW 2.6 km/h 6.1 km/h 99% 0.0 mm 0 W/m2
07:12 9.1 °C 8.9 °C 1016.1 hPa North 2.6 km/h 6.1 km/h 99% 0.0 mm 0 W/m2
07:17 9.1 °C 8.9 °C 1016.1 hPa North 2.6 km/h 5.0 km/h 99% 0.0 mm 0 W/m2
07:22 9.1 °C 8.9 °C 1016.1 hPa NNW 3.5 km/h 5.0 km/h 99% 0.0 mm 0 W/m2
07:27 9.1 °C 8.9 °C 1016.1 hPa NNW 3.5 km/h 7.2 km/h 99% 0.0 mm 0 W/m2
07:32 9.2 °C 9.1 °C 1016.1 hPa NNW 2.6 km/h 7.2 km/h 99% 0.0 mm 0 W/m2
07:37 9.2 °C 9.1 °C 1016.1 hPa NW 1.1 km/h 6.1 km/h 99% 0.0 mm 0 W/m2
07:42 9.2 °C 9.1 °C 1016.1 hPa NW 2.6 km/h 5.0 km/h 99% 0.0 mm 0 W/m2
07:47 9.2 °C 9.1 °C 1016.1 hPa NW 3.5 km/h 6.1 km/h 99% 0.0 mm 0 W/m2
07:52 9.2 °C 9.1 °C 1016.1 hPa NW 2.6 km/h 6.1 km/h 99% 0.0 mm 0 W/m2
07:57 9.2 °C 9.1 °C 1016.1 hPa NW 2.6 km/h 6.1 km/h 99% 0.0 mm 0 W/m2
08:02 9.2 °C 9.1 °C 1016.1 hPa NNW 1.1 km/h 5.0 km/h 99% 0.0 mm 0 W/m2
08:07 9.2 °C 9.1 °C 1016.1 hPa NNW 2.6 km/h 7.2 km/h 99% 0.0 mm 0 W/m2
08:12 9.3 °C 9.2 °C 1016.1 hPa NNW 2.6 km/h 7.2 km/h 99% 0.0 mm 0 W/m2
08:17 9.2 °C 9.1 °C 1016.1 hPa NNW 2.6 km/h 5.0 km/h 99% 0.0 mm 0 W/m2
08:22 9.3 °C 9.2 °C 1016.1 hPa NNW 1.1 km/h 6.1 km/h 99% 0.0 mm 0 W/m2
08:27 9.3 °C 9.2 °C 1016.1 hPa NNW 1.1 km/h 6.1 km/h 99% 0.0 mm 0 W/m2
08:35 9.3 °C 9.2 °C 1016.1 hPa NNW 3.5 km/h 6.1 km/h 99% 0.0 mm 0 W/m2
08:40 9.3 °C 9.2 °C 1016.5 hPa NNW 2.6 km/h 7.2 km/h 99% 0.0 mm 0 W/m2
08:45 9.4 °C 9.3 °C 1016.1 hPa NNW 2.6 km/h 8.7 km/h 99% 0.0 mm 0 W/m2
08:50 9.4 °C 9.3 °C 1016.1 hPa NNW 2.6 km/h 8.7 km/h 99% 0.0 mm 0 W/m2
08:55 9.4 °C 9.3 °C 1016.1 hPa North 2.6 km/h 5.0 km/h 99% 0.0 mm 0 W/m2
09:00 9.4 °C 9.3 °C 1016.1 hPa NNW 1.1 km/h 5.0 km/h 99% 0.0 mm 0 W/m2
09:05 9.4 °C 9.3 °C 1016.1 hPa NNW 6.1 km/h 7.2 km/h 99% 0.0 mm 0 W/m2
09:10 9.4 °C 9.3 °C 1016.1 hPa NNW 5.0 km/h 7.2 km/h 99% 0.0 mm 0 W/m2
09:15 9.4 °C 9.3 °C 1016.1 hPa NNW 6.1 km/h 8.7 km/h 99% 0.0 mm 0 W/m2
09:20 9.5 °C 9.3 °C 1016.1 hPa NNW 5.0 km/h 8.7 km/h 99% 0.0 mm 0 W/m2
09:25 9.5 °C 9.3 °C 1016.1 hPa NNW 2.6 km/h 8.7 km/h 99% 0.0 mm 0 W/m2
09:30 9.5 °C 9.3 °C 1016.1 hPa Calm   7.2 km/h 99% 0.0 mm 0 W/m2
09:35 9.4 °C 9.3 °C 1016.1 hPa North 2.6 km/h 5.0 km/h 99% 0.0 mm 0 W/m2
09:40 9.4 °C 9.3 °C 1016.1 hPa North 1.1 km/h 5.0 km/h 99% 0.0 mm 0 W/m2
09:45 9.4 °C 9.3 °C 1016.1 hPa North 1.1 km/h 5.0 km/h 99% 0.0 mm 0 W/m2
09:50 9.4 °C 9.3 °C 1016.1 hPa NNW 1.1 km/h 5.0 km/h 99% 0.0 mm 0 W/m2
09:55 9.3 °C 9.2 °C 1016.5 hPa NW 1.1 km/h 5.0 km/h 99% 0.0 mm 0 W/m2
10:00 9.3 °C 9.2 °C 1016.1 hPa Calm   5.0 km/h 99% 0.0 mm 0 W/m2
10:06 9.5 °C 9.3 °C 1016.1 hPa WNW 6.1 km/h 9.7 km/h 99% 0.0 mm 0 W/m2
10:11 10.6 °C 10.4 °C 1016.1 hPa WSW 5.0 km/h 9.7 km/h 99% 0.0 mm 0 W/m2
10:16 11.0 °C 10.7 °C 1016.5 hPa WSW 3.5 km/h 13.4 km/h 98% 0.0 mm 0 W/m2
10:21 11.2 °C 10.9 °C 1016.1 hPa WSW 8.7 km/h 13.4 km/h 98% 0.0 mm 0 W/m2
10:26 11.4 °C 11.1 °C 1016.1 hPa WSW 8.7 km/h 12.2 km/h 98% 0.0 mm 0 W/m2
10:31 11.5 °C 11.2 °C 1016.5 hPa WSW 11.1 km/h 14.8 km/h 98% 0.0 mm 0 W/m2
10:36 11.5 °C 11.2 °C 1016.1 hPa WSW 7.2 km/h 14.8 km/h 98% 0.0 mm 0 W/m2
10:41 11.5 °C 11.2 °C 1016.1 hPa WSW 8.7 km/h 14.8 km/h 98% 0.0 mm 0 W/m2
10:44 11.5 °C 11.2 °C 1016.1 hPa West 12.2 km/h 15.8 km/h 98% 0.0 mm 0 W/m2
10:49 11.6 °C 11.3 °C 1016.5 hPa West 7.2 km/h 15.8 km/h 98% 0.0 mm 0 W/m2
10:54 11.6 °C 11.3 °C 1016.1 hPa WSW 11.1 km/h 15.8 km/h 98% 0.0 mm 0 W/m2
10:59 11.6 °C 11.3 °C 1016.1 hPa West 5.0 km/h 15.8 km/h 98% 0.0 mm 0 W/m2
11:04 11.6 °C 11.3 °C 1016.1 hPa West 7.2 km/h 15.8 km/h 98% 0.0 mm 0 W/m2
11:09 11.6 °C 11.2 °C 1016.1 hPa WSW 6.1 km/h 18.3 km/h 97% 0.0 mm 0 W/m2
11:14 11.6 °C 11.2 °C 1016.1 hPa WSW 6.1 km/h 18.3 km/h 97% 0.0 mm 0 W/m2
11:19 11.6 °C 11.0 °C 1016.1 hPa West 7.2 km/h 12.2 km/h 96% 0.0 mm 0 W/m2
11:24 11.6 °C 11.0 °C 1016.1 hPa West 5.0 km/h 13.4 km/h 96% 0.0 mm 0 W/m2
11:29 11.6 °C 10.8 °C 1016.1 hPa West 7.2 km/h 13.4 km/h 95% 0.0 mm 0 W/m2
11:34 11.6 °C 10.8 °C 1016.1 hPa West 3.5 km/h 17.2 km/h 95% 0.0 mm 0 W/m2
11:39 11.6 °C 10.7 °C 1016.1 hPa WSW 2.6 km/h 17.2 km/h 94% 0.0 mm 0 W/m2
11:44 11.5 °C 10.6 °C 1016.1 hPa West 6.1 km/h 8.7 km/h 94% 0.0 mm 0 W/m2
11:49 11.5 °C 10.6 °C 1016.1 hPa West 6.1 km/h 11.1 km/h 94% 0.0 mm 0 W/m2
11:54 11.5 °C 10.6 °C 1016.1 hPa WNW 3.5 km/h 11.1 km/h 94% 0.0 mm 0 W/m2
11:59 11.3 °C 10.2 °C 1016.1 hPa NW 2.6 km/h 11.1 km/h 93% 0.0 mm 0 W/m2
12:04 11.1 °C 10.0 °C 1016.1 hPa NNW 3.5 km/h 6.1 km/h 93% 0.0 mm 0 W/m2
12:09 11.0 °C 9.9 °C 1016.5 hPa NW 1.1 km/h 7.2 km/h 93% 0.0 mm 0 W/m2
12:14 11.0 °C 9.9 °C 1016.1 hPa NW 2.6 km/h 7.2 km/h 93% 0.0 mm 0 W/m2
12:19 11.1 °C 10.2 °C 1016.5 hPa WNW 3.5 km/h 11.1 km/h 94% 0.0 mm 0 W/m2
12:24 11.2 °C 10.3 °C 1016.5 hPa West 7.2 km/h 12.2 km/h 94% 0.0 mm 0 W/m2
12:29 11.3 °C 10.2 °C 1016.5 hPa West 2.6 km/h 12.2 km/h 93% 0.0 mm 0 W/m2
12:35 11.4 °C 10.3 °C 1016.5 hPa West 7.2 km/h 11.1 km/h 93% 0.0 mm 0 W/m2
12:40 11.5 °C 10.4 °C 1016.5 hPa West 3.5 km/h 12.2 km/h 93% 0.0 mm 0 W/m2
12:45 11.6 °C 10.3 °C 1016.5 hPa West 3.5 km/h 12.2 km/h 92% 0.0 mm 0 W/m2
12:50 11.6 °C 10.3 °C 1016.5 hPa West 6.1 km/h 12.2 km/h 92% 0.0 mm 0 W/m2
12:55 11.6 °C 10.3 °C 1016.5 hPa West 6.1 km/h 12.2 km/h 92% 0.0 mm 0 W/m2
13:00 11.6 °C 10.3 °C 1016.5 hPa West 5.0 km/h 11.1 km/h 92% 0.0 mm 0 W/m2
13:05 11.7 °C 10.4 °C 1016.8 hPa WSW 6.1 km/h 11.1 km/h 92% 0.0 mm 0 W/m2
13:10 11.7 °C 10.4 °C 1016.5 hPa West 3.5 km/h 11.1 km/h 92% 0.0 mm 0 W/m2
13:15 11.8 °C 10.6 °C 1016.8 hPa West 5.0 km/h 11.1 km/h 92% 0.0 mm 0 W/m2
13:20 11.8 °C 10.6 °C 1016.8 hPa West 5.0 km/h 11.1 km/h 92% 0.0 mm 0 W/m2
13:26 11.7 °C 10.3 °C 1016.8 hPa West 3.5 km/h 13.4 km/h 91% 0.0 mm 0 W/m2
13:31 11.7 °C 10.3 °C 1016.8 hPa West 11.1 km/h 15.8 km/h 91% 0.0 mm 0 W/m2
13:36 11.7 °C 10.3 °C 1016.8 hPa West 6.1 km/h 15.8 km/h 91% 0.0 mm 0 W/m2
13:41 11.8 °C 10.4 °C 1016.8 hPa West 5.0 km/h 15.8 km/h 91% 0.0 mm 0 W/m2
13:46 11.8 °C 10.4 °C 1017.2 hPa WSW 8.7 km/h 12.2 km/h 91% 0.0 mm 0 W/m2
13:51 11.8 °C 10.4 °C 1017.2 hPa WSW 6.1 km/h 17.2 km/h 91% 0.0 mm 0 W/m2
13:56 11.8 °C 10.4 °C 1017.2 hPa West 13.4 km/h 17.2 km/h 91% 0.0 mm 0 W/m2
14:01 11.8 °C 10.2 °C 1017.2 hPa WNW 7.2 km/h 15.8 km/h 90% 0.0 mm 0 W/m2
14:06 11.8 °C 10.2 °C 1017.2 hPa West 5.0 km/h 17.2 km/h 90% 0.0 mm 0 W/m2
14:11 11.7 °C 10.1 °C 1017.2 hPa WSW 7.2 km/h 17.2 km/h 90% 0.0 mm 0 W/m2
14:16 11.8 °C 10.2 °C 1017.2 hPa WSW 3.5 km/h 15.8 km/h 90% 0.0 mm 0 W/m2
14:21 11.8 °C 10.2 °C 1017.2 hPa WSW 3.5 km/h 15.8 km/h 90% 0.0 mm 0 W/m2
14:26 11.8 °C 10.1 °C 1017.5 hPa West 3.5 km/h 9.7 km/h 89% 0.0 mm 0 W/m2
14:31 11.8 °C 10.1 °C 1017.5 hPa West 3.5 km/h 14.8 km/h 89% 0.0 mm 0 W/m2
14:36 11.8 °C 10.1 °C 1017.2 hPa West 7.2 km/h 15.8 km/h 89% 0.0 mm 0 W/m2
14:41 11.8 °C 10.1 °C 1017.2 hPa West 9.7 km/h 17.2 km/h 89% 0.0 mm 0 W/m2
14:46 11.8 °C 9.9 °C 1017.2 hPa WNW 8.7 km/h 17.2 km/h 88% 0.0 mm 0 W/m2
14:51 11.7 °C 9.8 °C 1017.5 hPa West 13.4 km/h 19.5 km/h 88% 0.0 mm 0 W/m2
14:56 11.8 °C 9.9 °C 1017.2 hPa WSW 11.1 km/h 20.9 km/h 88% 0.0 mm 0 W/m2
15:01 11.8 °C 9.7 °C 1017.2 hPa WSW 7.2 km/h 20.9 km/h 87% 0.0 mm 0 W/m2
15:06 11.8 °C 9.7 °C 1017.5 hPa WSW 5.0 km/h 13.4 km/h 87% 0.0 mm 0 W/m2
15:11 11.8 °C 9.7 °C 1017.5 hPa WSW 6.1 km/h 13.4 km/h 87% 0.0 mm 0 W/m2
15:16 11.7 °C 9.6 °C 1017.2 hPa West 5.0 km/h 13.4 km/h 87% 0.0 mm 0 W/m2
15:21 11.8 °C 9.7 °C 1017.5 hPa West 9.7 km/h 17.2 km/h 87% 0.0 mm 2 W/m2
15:26 11.8 °C 9.7 °C 1017.5 hPa WSW 5.0 km/h 17.2 km/h 87% 0.0 mm 3 W/m2
15:31 11.8 °C 9.6 °C 1017.5 hPa WSW 8.7 km/h 17.2 km/h 86% 0.0 mm 4 W/m2
15:36 11.9 °C 9.6 °C 1017.5 hPa WSW 8.7 km/h 17.2 km/h 86% 0.0 mm 5 W/m2
15:41 12.0 °C 9.4 °C 1017.5 hPa West 5.0 km/h 14.8 km/h 84% 0.0 mm 4 W/m2
15:46 12.0 °C 9.4 °C 1017.5 hPa WSW 9.7 km/h 17.2 km/h 84% 0.0 mm 6 W/m2
15:51 12.0 °C 9.4 °C 1017.8 hPa WSW 8.7 km/h 17.2 km/h 84% 0.0 mm 8 W/m2
16:10 12.0 °C 9.4 °C 1017.8 hPa West 3.5 km/h 14.8 km/h 84% 0.0 mm 19 W/m2
16:15 12.0 °C 9.2 °C 1018.2 hPa WSW 11.1 km/h 14.8 km/h 83% 0.0 mm 23 W/m2
16:20 12.1 °C 9.3 °C 1017.8 hPa WSW 7.2 km/h 13.4 km/h 83% 0.0 mm 18 W/m2
16:25 12.1 °C 9.1 °C 1018.2 hPa WSW 3.5 km/h 13.4 km/h 82% 0.0 mm 26 W/m2
16:30 12.0 °C 9.0 °C 1018.2 hPa West 5.0 km/h 15.8 km/h 82% 0.0 mm 39 W/m2
16:36 11.8 °C 9.4 °C 1018.2 hPa WSW 12.2 km/h 15.8 km/h 85% 0.0 mm 37 W/m2
16:41 11.5 °C 9.2 °C 1018.5 hPa SW 7.2 km/h 15.8 km/h 86% 0.0 mm 42 W/m2
16:46 11.4 °C 9.5 °C 1018.2 hPa SW 7.2 km/h 15.8 km/h 88% 0.3 mm 40 W/m2
16:51 11.3 °C 9.6 °C 1018.5 hPa WSW 9.7 km/h 13.4 km/h 89% 0.3 mm 37 W/m2
16:56 11.1 °C 9.7 °C 1018.2 hPa WSW 6.1 km/h 17.2 km/h 91% 0.3 mm 46 W/m2
17:01 11.1 °C 9.8 °C 1018.5 hPa WSW 2.6 km/h 17.2 km/h 92% 0.3 mm 50 W/m2
17:06 11.0 °C 9.8 °C 1018.5 hPa West 2.6 km/h 8.7 km/h 92% 0.3 mm 60 W/m2
17:11 11.0 °C 9.9 °C 1018.5 hPa WNW 3.5 km/h 6.1 km/h 93% 0.3 mm 52 W/m2
17:16 11.1 °C 10.0 °C 1018.8 hPa WNW 3.5 km/h 6.1 km/h 93% 0.3 mm 49 W/m2
17:21 11.1 °C 10.0 °C 1018.5 hPa NW 1.1 km/h 5.0 km/h 93% 0.3 mm 47 W/m2
17:39 11.2 °C 9.9 °C 1018.5 hPa WSW 3.5 km/h 9.7 km/h 92% 0.3 mm 57 W/m2
17:44 11.2 °C 9.9 °C 1018.5 hPa West 1.1 km/h 8.7 km/h 92% 0.0 mm 66 W/m2
17:49 11.3 °C 10.1 °C 1018.8 hPa WNW 5.0 km/h 8.7 km/h 92% 0.0 mm 82 W/m2
17:54 11.4 °C 10.2 °C 1018.8 hPa NW 2.6 km/h 7.2 km/h 92% 0.0 mm 85 W/m2
17:59 11.4 °C 10.2 °C 1018.8 hPa WNW 2.6 km/h 7.2 km/h 92% 0.0 mm 76 W/m2
18:04 11.5 °C 10.2 °C 1018.8 hPa NW 3.5 km/h 6.1 km/h 92% 0.0 mm 77 W/m2
18:09 11.6 °C 10.3 °C 1018.8 hPa NNW 1.1 km/h 6.1 km/h 92% 0.0 mm 86 W/m2
18:14 11.7 °C 10.4 °C 1018.8 hPa NNW 3.5 km/h 6.1 km/h 92% 0.0 mm 87 W/m2
18:19 11.7 °C 10.3 °C 1018.8 hPa NNW 5.0 km/h 7.2 km/h 91% 0.0 mm 85 W/m2
18:24 11.7 °C 10.3 °C 1018.8 hPa NW 3.5 km/h 7.2 km/h 91% 0.0 mm 96 W/m2
18:29 11.7 °C 10.3 °C 1018.8 hPa West 3.5 km/h 9.7 km/h 91% 0.0 mm 121 W/m2
18:34 11.7 °C 10.3 °C 1018.8 hPa West 3.5 km/h 9.7 km/h 91% 0.0 mm 96 W/m2
18:40 11.8 °C 10.4 °C 1018.8 hPa West 5.0 km/h 8.7 km/h 91% 0.0 mm 76 W/m2
18:45 11.8 °C 10.4 °C 1019.2 hPa SW 9.7 km/h 15.8 km/h 91% 0.0 mm 103 W/m2
18:50 11.7 °C 10.3 °C 1018.8 hPa WSW 11.1 km/h 15.8 km/h 91% 0.0 mm 113 W/m2
18:55 11.6 °C 10.3 °C 1018.8 hPa WSW 5.0 km/h 15.8 km/h 92% 0.0 mm 123 W/m2
19:00 11.5 °C 10.2 °C 1018.8 hPa SW 5.0 km/h 14.8 km/h 92% 0.3 mm 129 W/m2
19:06 11.7 °C 10.6 °C 1018.8 hPa SW 6.1 km/h 14.8 km/h 93% 0.3 mm 99 W/m2
19:11 11.6 °C 10.5 °C 1018.8 hPa WSW 5.0 km/h 8.7 km/h 93% 0.3 mm 84 W/m2
19:16 11.4 °C 10.2 °C 1018.8 hPa WSW 3.5 km/h 12.2 km/h 92% 0.3 mm 77 W/m2
19:21 11.3 °C 10.1 °C 1018.8 hPa West 3.5 km/h 12.2 km/h 92% 0.3 mm 43 W/m2
19:26 11.3 °C 10.2 °C 1018.5 hPa West 1.1 km/h 8.7 km/h 93% 0.3 mm 70 W/m2
19:31 11.3 °C 10.2 °C 1018.8 hPa West 3.5 km/h 11.1 km/h 93% 0.3 mm 68 W/m2
19:36 11.3 °C 10.2 °C 1018.8 hPa West 5.0 km/h 11.1 km/h 93% 0.3 mm 82 W/m2
19:41 11.4 °C 10.4 °C 1018.5 hPa West 3.5 km/h 8.7 km/h 94% 0.5 mm 116 W/m2
19:46 11.4 °C 10.4 °C 1018.5 hPa West 2.6 km/h 8.7 km/h 94% 0.5 mm 121 W/m2
19:51 11.4 °C 10.4 °C 1018.5 hPa WSW 7.2 km/h 13.4 km/h 94% 0.5 mm 136 W/m2
19:56 11.6 °C 10.7 °C 1018.5 hPa SW 1.1 km/h 13.4 km/h 94% 0.5 mm 119 W/m2
20:01 11.7 °C 10.8 °C 1018.2 hPa WSW 3.5 km/h 12.2 km/h 94% 0.3 mm 102 W/m2
20:06 11.7 °C 10.8 °C 1018.2 hPa West 6.1 km/h 8.7 km/h 94% 0.3 mm 96 W/m2
20:11 11.5 °C 10.6 °C 1018.2 hPa West 5.0 km/h 11.1 km/h 94% 0.3 mm 79 W/m2
20:16 11.5 °C 10.7 °C 1018.2 hPa WNW 8.7 km/h 11.1 km/h 95% 0.3 mm 82 W/m2
20:21 11.5 °C 10.7 °C 1018.2 hPa WNW 3.5 km/h 11.1 km/h 95% 0.3 mm 115 W/m2
20:26 11.6 °C 10.8 °C 1018.2 hPa West 5.0 km/h 11.1 km/h 95% 0.3 mm 82 W/m2
20:31 11.6 °C 10.8 °C 1018.2 hPa West 3.5 km/h 9.7 km/h 95% 0.5 mm 62 W/m2
20:36 11.6 °C 10.8 °C 1018.2 hPa WSW 1.1 km/h 9.7 km/h 95% 1.0 mm 72 W/m2
20:41 11.6 °C 10.8 °C 1017.8 hPa WSW 6.1 km/h 11.1 km/h 95% 0.5 mm 83 W/m2
20:46 11.7 °C 10.9 °C 1017.8 hPa WNW 7.2 km/h 11.1 km/h 95% 0.5 mm 100 W/m2
20:51 11.8 °C 11.2 °C 1017.8 hPa WNW 6.1 km/h 9.7 km/h 96% 1.0 mm 103 W/m2
20:56 11.6 °C 10.8 °C 1017.8 hPa West 6.1 km/h 14.8 km/h 95% 1.0 mm 92 W/m2
21:01 11.7 °C 11.1 °C 1017.5 hPa WSW 3.5 km/h 14.8 km/h 96% 1.0 mm 86 W/m2
21:06 11.7 °C 11.1 °C 1017.8 hPa WSW 5.0 km/h 14.8 km/h 96% 1.0 mm 99 W/m2
21:11 11.7 °C 11.1 °C 1017.5 hPa West 5.0 km/h 9.7 km/h 96% 1.3 mm 79 W/m2
21:16 11.7 °C 11.1 °C 1017.5 hPa WSW 5.0 km/h 9.7 km/h 96% 1.5 mm 107 W/m2
21:21 11.7 °C 11.1 °C 1017.8 hPa West 5.0 km/h 11.1 km/h 96% 1.5 mm 106 W/m2
21:26 11.8 °C 11.2 °C 1017.5 hPa West 5.0 km/h 12.2 km/h 96% 1.5 mm 75 W/m2
21:31 11.8 °C 11.2 °C 1017.5 hPa WSW 6.1 km/h 12.2 km/h 96% 1.3 mm 93 W/m2
21:36 11.9 °C 11.4 °C 1017.2 hPa WSW 6.1 km/h 13.4 km/h 97% 1.0 mm 83 W/m2
21:37 11.9 °C 11.4 °C 1017.5 hPa WSW 8.7 km/h 15.8 km/h 97% 1.0 mm 84 W/m2
21:42 11.9 °C 11.4 °C 1017.5 hPa WSW 11.1 km/h 17.2 km/h 97% 1.0 mm 77 W/m2
21:47 11.9 °C 11.4 °C 1017.5 hPa WSW 7.2 km/h 17.2 km/h 97% 1.0 mm 66 W/m2
21:52 11.9 °C 11.4 °C 1017.5 hPa West 11.1 km/h 18.3 km/h 97% 0.5 mm 108 W/m2
21:57 11.9 °C 11.4 °C 1017.5 hPa West 9.7 km/h 18.3 km/h 97% 0.5 mm 117 W/m2
22:02 12.1 °C 11.5 °C 1017.2 hPa West 13.4 km/h 18.3 km/h 96% 0.5 mm 123 W/m2
22:07 12.2 °C 11.6 °C 1017.2 hPa West 11.1 km/h 14.8 km/h 96% 0.5 mm 116 W/m2
22:12 12.2 °C 11.4 °C 1017.5 hPa West 5.0 km/h 14.8 km/h 95% 0.3 mm 123 W/m2
22:17 12.3 °C 11.5 °C 1017.2 hPa WSW 9.7 km/h 15.8 km/h 95% 0.0 mm 114 W/m2
22:22 12.4 °C 11.6 °C 1017.2 hPa WSW 6.1 km/h 15.8 km/h 95% 0.0 mm 107 W/m2
22:27 12.5 °C 11.7 °C 1017.2 hPa WSW 9.7 km/h 15.8 km/h 95% 0.0 mm 123 W/m2
22:32 12.7 °C 11.8 °C 1017.2 hPa WSW 7.2 km/h 15.8 km/h 94% 0.0 mm 153 W/m2
22:37 13.0 °C 12.1 °C 1017.2 hPa WSW 3.5 km/h 15.8 km/h 94% 0.0 mm 215 W/m2
22:42 13.4 °C 12.3 °C 1017.5 hPa WSW 3.5 km/h 12.2 km/h 93% 0.0 mm 128 W/m2
22:47 13.3 °C 12.1 °C 1017.5 hPa WSW 6.1 km/h 15.8 km/h 92% 0.0 mm 116 W/m2
22:52 13.0 °C 11.6 °C 1017.5 hPa WSW 6.1 km/h 15.8 km/h 91% 0.0 mm 96 W/m2
22:57 12.9 °C 11.6 °C 1017.5 hPa WSW 5.0 km/h 12.2 km/h 92% 0.0 mm 91 W/m2
23:02 12.7 °C 11.4 °C 1017.5 hPa WSW 6.1 km/h 15.8 km/h 92% 0.0 mm 80 W/m2
23:07 12.6 °C 11.3 °C 1017.5 hPa WSW 5.0 km/h 15.8 km/h 92% 0.0 mm 83 W/m2
23:12 12.7 °C 11.4 °C 1017.5 hPa West 5.0 km/h 12.2 km/h 92% 0.0 mm 86 W/m2
23:29 12.8 °C 11.6 °C 1017.5 hPa SW 7.2 km/h 15.8 km/h 92% 0.0 mm 53 W/m2
23:34 12.6 °C 11.2 °C 1017.5 hPa SW 2.6 km/h 15.8 km/h 91% 0.0 mm 43 W/m2
23:54 12.5 °C 11.2 °C 1017.5 hPa West 5.0 km/h 8.7 km/h 92% 0.0 mm 40 W/m2
23:59 12.5 °C 11.2 °C 1017.5 hPa West 6.1 km/h 12.2 km/h 92% 0.0 mm 36 W/m2
Northern Hawkes Bay. New Zealand Historic Data
Compliments of Weather Underground - 2 mb